createdAt,value
2023-04-20T00:07:35.952Z,9.67
2023-04-20T00:11:36.016Z,9.64
2023-04-20T00:15:36.086Z,9.63
2023-04-20T00:19:36.180Z,9.52
2023-04-20T00:23:35.949Z,9.46
2023-04-20T00:27:35.887Z,9.37
2023-04-20T00:31:36.139Z,9.33
2023-04-20T00:35:35.934Z,9.31
2023-04-20T00:39:36.249Z,9.25
2023-04-20T00:43:36.343Z,9.21
2023-04-20T00:47:36.190Z,9.17
2023-04-20T00:51:36.098Z,9.15
2023-04-20T00:55:37.683Z,9.06
2023-04-20T00:59:35.931Z,9.01
2023-04-20T01:03:37.238Z,8.97
2023-04-20T01:07:35.983Z,8.90
2023-04-20T01:11:36.121Z,8.83
2023-04-20T01:15:36.075Z,8.76
2023-04-20T01:19:36.111Z,8.72
2023-04-20T01:23:35.988Z,8.70
2023-04-20T01:27:36.163Z,8.65
2023-04-20T01:31:36.446Z,8.63
2023-04-20T01:35:36.138Z,8.60
2023-04-20T01:39:37.475Z,8.62
2023-04-20T01:47:36.504Z,8.63
2023-04-20T01:51:36.435Z,8.65
2023-04-20T01:55:36.411Z,8.60
2023-04-20T01:59:36.099Z,8.54
2023-04-20T02:03:36.322Z,8.51
2023-04-20T02:07:36.337Z,8.46
2023-04-20T02:11:36.332Z,8.38
2023-04-20T02:15:36.514Z,8.31
2023-04-20T02:19:36.848Z,8.26
2023-04-20T02:23:36.350Z,8.21
2023-04-20T02:27:36.273Z,8.20
2023-04-20T02:31:36.394Z,8.18
2023-04-20T02:35:36.613Z,8.15
2023-04-20T02:39:36.191Z,8.13
2023-04-20T02:43:36.498Z,8.10
2023-04-20T02:47:36.314Z,8.08
2023-04-20T02:51:36.388Z,8.03
2023-04-20T02:55:36.250Z,8.02
2023-04-20T02:59:36.443Z,7.99
2023-04-20T03:03:36.424Z,7.95
2023-04-20T03:07:36.476Z,7.91
2023-04-20T03:11:36.349Z,7.85
2023-04-20T03:15:36.350Z,7.83
2023-04-20T03:19:36.519Z,7.82
2023-04-20T03:23:36.577Z,7.79
2023-04-20T03:27:36.361Z,7.76
2023-04-20T03:31:36.536Z,7.74
2023-04-20T03:35:38.328Z,7.69
2023-04-20T03:39:36.626Z,7.61
2023-04-20T03:43:36.428Z,7.58
2023-04-20T03:47:36.638Z,7.52
2023-04-20T03:51:36.386Z,7.45
2023-04-20T03:55:36.615Z,7.46
2023-04-20T03:59:36.404Z,7.43
2023-04-20T04:03:36.727Z,7.40
2023-04-20T04:07:36.502Z,7.41
2023-04-20T04:11:36.617Z,7.37
2023-04-20T04:15:36.488Z,7.38
2023-04-20T04:19:36.714Z,7.35
2023-04-20T04:23:36.672Z,7.30
2023-04-20T04:27:36.749Z,7.28
2023-04-20T04:31:36.601Z,7.25
2023-04-20T04:35:36.870Z,7.24
2023-04-20T04:39:36.526Z,7.25
2023-04-20T04:43:36.953Z,7.19
2023-04-20T04:47:36.681Z,7.15
2023-04-20T04:51:36.759Z,7.12
2023-04-20T04:55:36.754Z,7.06
2023-04-20T04:59:36.812Z,7.03
2023-04-20T05:03:36.879Z,7.02
2023-04-20T05:07:37.296Z,6.91
2023-04-20T05:11:36.966Z,6.86
2023-04-20T05:15:36.806Z,6.85
2023-04-20T05:19:36.645Z,6.88
2023-04-20T05:23:36.946Z,6.92
2023-04-20T05:27:36.670Z,6.90
2023-04-20T05:31:37.081Z,6.87
2023-04-20T05:35:39.192Z,6.89
2023-04-20T05:39:37.087Z,6.92
2023-04-20T05:47:36.859Z,6.96
2023-04-20T05:51:36.967Z,7.00
2023-04-20T05:55:36.896Z,7.02
2023-04-20T05:59:36.956Z,7.06
2023-04-20T06:03:37.042Z,7.10
2023-04-20T06:07:37.430Z,7.11
2023-04-20T06:11:36.870Z,7.15
2023-04-20T06:15:36.909Z,7.19
2023-04-20T06:23:37.328Z,7.24
2023-04-20T06:27:36.940Z,7.28
2023-04-20T06:31:36.955Z,7.34
2023-04-20T06:35:38.411Z,7.41
2023-04-20T06:39:37.198Z,7.49
2023-04-20T06:43:37.068Z,7.54
2023-04-20T06:47:37.114Z,7.58
2023-04-20T06:51:38.245Z,7.63
2023-04-20T06:55:37.164Z,7.70
2023-04-20T06:59:36.888Z,7.73
2023-04-20T07:03:37.319Z,7.76
2023-04-20T07:07:37.040Z,7.80
2023-04-20T07:11:37.099Z,7.88
2023-04-20T07:15:37.063Z,7.97
2023-04-20T07:19:37.106Z,8.06
2023-04-20T07:23:36.992Z,8.15
2023-04-20T07:27:38.920Z,8.26
2023-04-20T07:31:37.032Z,8.33
2023-04-20T07:35:37.255Z,8.41
2023-04-20T07:39:37.344Z,8.46
2023-04-20T07:43:38.101Z,8.55
2023-04-20T07:47:37.980Z,8.59
2023-04-20T07:51:37.311Z,8.68
2023-04-20T07:55:37.214Z,8.75
2023-04-20T07:59:38.587Z,8.85
2023-04-20T08:03:37.261Z,8.95
2023-04-20T08:07:37.492Z,9.09
2023-04-20T08:11:37.271Z,9.20
2023-04-20T08:15:37.362Z,9.32
2023-04-20T08:19:37.202Z,9.41
2023-04-20T08:23:37.308Z,9.45
2023-04-20T08:27:37.275Z,9.50
2023-04-20T08:31:37.691Z,9.56
2023-04-20T08:35:37.159Z,9.65
2023-04-20T08:39:38.042Z,9.73
2023-04-20T08:43:37.241Z,9.82
2023-04-20T08:47:38.231Z,9.93
2023-04-20T08:51:38.706Z,9.98
2023-04-20T08:55:37.555Z,10.08
2023-04-20T08:59:37.426Z,10.17
2023-04-20T09:03:39.250Z,10.26
2023-04-20T09:07:37.349Z,10.35
2023-04-20T09:11:37.481Z,10.49
2023-04-20T09:15:37.308Z,10.58
2023-04-20T09:19:37.429Z,10.67
2023-04-20T09:23:37.391Z,10.72
2023-04-20T09:27:37.521Z,10.81
2023-04-20T09:31:37.374Z,10.89
2023-04-20T09:35:39.349Z,11.03
2023-04-20T09:39:41.392Z,11.13
2023-04-20T09:43:39.181Z,11.12
2023-04-20T09:47:40.831Z,11.14
2023-04-20T09:51:40.719Z,11.22
2023-04-20T09:55:37.373Z,11.30
2023-04-20T09:59:37.762Z,11.40
2023-04-20T10:03:40.224Z,11.45
2023-04-20T10:08:39.605Z,11.57
2023-04-20T10:12:35.992Z,11.62
2023-04-20T10:16:32.916Z,11.71
2023-04-20T10:24:33.192Z,11.76
2023-04-20T10:28:41.897Z,11.84
2023-04-20T10:32:32.974Z,11.91
2023-04-20T10:36:36.060Z,11.97
2023-04-20T10:40:32.946Z,12.03
2023-04-20T10:44:34.388Z,12.10
2023-04-20T10:48:33.773Z,12.18
2023-04-20T10:52:33.737Z,12.30
2023-04-20T10:56:36.536Z,12.36
2023-04-20T11:00:33.070Z,12.46
2023-04-20T11:04:34.542Z,12.53
2023-04-20T11:12:37.648Z,12.62
2023-04-20T11:16:48.076Z,12.75
2023-04-20T11:20:33.424Z,12.81
2023-04-20T11:24:34.084Z,12.93
2023-04-20T11:28:34.185Z,13.03
2023-04-20T11:32:34.713Z,13.09
2023-04-20T11:36:37.861Z,13.10
2023-04-20T11:40:33.197Z,13.14
2023-04-20T11:44:35.467Z,13.20
2023-04-20T11:48:33.055Z,13.22
2023-04-20T11:52:33.165Z,13.33
2023-04-20T11:56:33.046Z,13.37
2023-04-20T12:04:33.684Z,13.46
2023-04-20T12:08:33.083Z,13.52
2023-04-20T12:12:33.231Z,13.61
2023-04-20T12:16:33.151Z,13.72
2023-04-20T12:20:33.349Z,13.82
2023-04-20T12:24:33.120Z,13.83
2023-04-20T12:28:33.212Z,13.86
2023-04-20T12:32:33.182Z,13.95
2023-04-20T12:36:33.963Z,14.03
2023-04-20T12:40:34.084Z,14.06
2023-04-20T12:44:33.422Z,14.21
2023-04-20T12:48:33.323Z,14.28
2023-04-20T12:52:33.471Z,14.37
2023-04-20T12:56:33.403Z,14.41
2023-04-20T13:00:33.468Z,14.33
2023-04-20T13:08:36.072Z,14.35
2023-04-20T13:12:33.264Z,14.30
2023-04-20T13:16:33.461Z,14.33
2023-04-20T13:20:33.275Z,14.39
2023-04-20T13:24:33.634Z,14.41
2023-04-20T13:28:33.782Z,14.39
2023-04-20T13:36:33.442Z,14.40
2023-04-20T13:40:33.481Z,14.44
2023-04-20T13:44:33.466Z,14.43
2023-04-20T13:48:33.566Z,14.38
2023-04-20T13:52:33.974Z,14.48
2023-04-20T13:56:33.846Z,14.58
2023-04-20T14:04:33.658Z,14.59
2023-04-20T14:08:33.486Z,14.64
2023-04-20T14:12:33.944Z,14.59
2023-04-20T14:16:42.181Z,14.72
2023-04-20T14:20:33.766Z,14.91
2023-04-20T14:24:33.464Z,15.00
2023-04-20T14:28:33.737Z,15.08
2023-04-20T14:32:34.382Z,15.19
2023-04-20T14:36:33.873Z,15.20
2023-04-20T14:40:33.848Z,15.27
2023-04-20T14:44:33.772Z,15.28
2023-04-20T14:48:34.766Z,15.37
2023-04-20T14:52:34.031Z,15.47
2023-04-20T14:56:33.582Z,15.53
2023-04-20T15:00:33.734Z,15.64
2023-04-20T15:04:33.910Z,15.75
2023-04-20T15:08:34.523Z,15.78
2023-04-20T15:12:33.651Z,15.67
2023-04-20T15:16:33.792Z,15.64
2023-04-20T15:20:33.797Z,15.68
2023-04-20T15:24:33.973Z,15.49
2023-04-20T15:28:34.057Z,15.50
2023-04-20T15:32:33.925Z,15.37
2023-04-20T15:36:33.731Z,15.02
2023-04-20T15:40:33.906Z,14.78
2023-04-20T15:44:33.792Z,14.56
2023-04-20T15:48:34.010Z,14.36
2023-04-20T15:52:33.724Z,14.17
2023-04-20T15:56:33.881Z,14.06
2023-04-20T16:00:33.759Z,13.89
2023-04-20T16:04:34.070Z,13.70
2023-04-20T16:08:33.768Z,13.44
2023-04-20T16:12:34.091Z,13.30
2023-04-20T16:16:34.245Z,13.23
2023-04-20T16:20:34.167Z,13.12
2023-04-20T16:24:33.815Z,13.11
2023-04-20T16:28:34.271Z,13.05
2023-04-20T16:32:33.951Z,12.93
2023-04-20T16:36:34.351Z,12.85
2023-04-20T16:40:33.889Z,12.73
2023-04-20T16:44:34.074Z,12.47
2023-04-20T16:48:33.846Z,12.19
2023-04-20T16:52:34.229Z,12.00
2023-04-20T16:56:34.049Z,11.81
2023-04-20T17:00:34.547Z,11.65
2023-04-20T17:04:34.856Z,11.47
2023-04-20T17:08:34.375Z,11.36
2023-04-20T17:12:33.945Z,11.30
2023-04-20T17:16:34.126Z,11.23
2023-04-20T17:20:34.336Z,11.15
2023-04-20T17:24:34.715Z,11.01
2023-04-20T17:28:34.058Z,10.93
2023-04-20T17:32:34.026Z,10.78
2023-04-20T17:36:34.059Z,10.65
2023-04-20T17:40:34.693Z,10.51
2023-04-20T17:44:34.147Z,10.43
2023-04-20T17:48:34.258Z,10.41
2023-04-20T17:52:34.214Z,10.39
2023-04-20T17:56:34.320Z,10.38
2023-04-20T18:00:34.197Z,10.40
2023-04-20T18:04:34.378Z,10.33
2023-04-20T18:08:34.295Z,10.34
2023-04-20T18:12:34.409Z,10.36
2023-04-20T18:16:34.613Z,10.28
2023-04-20T18:20:34.109Z,10.27
2023-04-20T18:24:34.195Z,10.21
2023-04-20T18:28:34.180Z,10.17
2023-04-20T18:32:35.219Z,10.19
2023-04-20T18:36:34.549Z,10.15
2023-04-20T18:44:34.591Z,10.13
2023-04-20T18:52:34.558Z,10.15
2023-04-20T18:56:35.853Z,10.07
2023-04-20T19:00:34.587Z,10.06
2023-04-20T19:08:34.398Z,10.11
2023-04-20T19:12:36.847Z,10.10
2023-04-20T19:16:34.722Z,10.12
2023-04-20T19:20:34.680Z,10.15
2023-04-20T19:24:34.483Z,10.12
2023-04-20T19:28:34.400Z,10.08
2023-04-20T19:32:35.001Z,10.10
2023-04-20T19:36:34.374Z,10.13
2023-04-20T19:40:34.476Z,10.11
2023-04-20T19:44:34.847Z,10.12
2023-04-20T19:48:35.028Z,10.07
2023-04-20T19:52:35.008Z,10.06
2023-04-20T19:56:35.988Z,10.05
2023-04-20T20:00:35.344Z,10.00
2023-04-20T20:04:36.588Z,9.97
2023-04-20T20:08:35.091Z,9.94
2023-04-20T20:12:34.630Z,9.92
2023-04-20T20:16:35.277Z,9.88
2023-04-20T20:20:36.807Z,9.86
2023-04-20T20:24:34.993Z,9.81
2023-04-20T20:28:34.519Z,9.76
2023-04-20T20:32:34.669Z,9.66
2023-04-20T20:36:34.926Z,9.63
2023-04-20T20:40:35.012Z,9.59
2023-04-20T20:44:39.065Z,9.57
2023-04-20T20:48:34.665Z,9.54
2023-04-20T20:52:34.886Z,9.49
2023-04-20T20:56:35.430Z,9.47
2023-04-20T21:00:34.790Z,9.43
2023-04-20T21:04:35.654Z,9.38
2023-04-20T21:08:35.134Z,9.34
2023-04-20T21:12:34.672Z,9.28
2023-04-20T21:16:34.873Z,9.23
2023-04-20T21:20:35.004Z,9.10
2023-04-20T21:24:34.802Z,9.06
2023-04-20T21:28:34.627Z,9.04
2023-04-20T21:32:34.825Z,9.03
2023-04-20T21:36:34.845Z,8.94
2023-04-20T21:40:34.819Z,8.90
2023-04-20T21:44:34.681Z,8.86
2023-04-20T21:48:34.799Z,8.80
2023-04-20T21:52:34.688Z,8.78
2023-04-20T21:56:34.909Z,8.80
2023-04-20T22:00:34.828Z,8.81
2023-04-20T22:08:38.648Z,8.82
2023-04-20T22:12:39.898Z,8.75
2023-04-20T22:16:34.987Z,8.74
2023-04-20T22:20:35.848Z,8.72
2023-04-20T22:24:35.100Z,8.70
2023-04-20T22:28:34.988Z,8.67
2023-04-20T22:32:35.270Z,8.68
2023-04-20T22:36:34.797Z,8.64
2023-04-20T22:40:35.027Z,8.61
2023-04-20T22:44:34.901Z,8.62
2023-04-20T22:48:35.760Z,8.59
2023-04-20T22:52:35.816Z,8.58
2023-04-20T22:56:35.308Z,8.54
2023-04-20T23:00:35.059Z,8.50
2023-04-20T23:04:36.749Z,8.48
2023-04-20T23:08:34.989Z,8.47
2023-04-20T23:12:34.961Z,8.45
2023-04-20T23:16:35.146Z,8.42
2023-04-20T23:20:36.370Z,8.37
2023-04-20T23:24:35.116Z,8.36
2023-04-20T23:28:35.109Z,8.38
2023-04-20T23:32:36.109Z,8.31
2023-04-20T23:36:35.434Z,8.25
2023-04-20T23:40:35.035Z,8.26
2023-04-20T23:44:35.092Z,8.25
2023-04-20T23:48:35.221Z,8.23
2023-04-20T23:52:35.350Z,8.24
2023-04-20T23:56:35.023Z,8.19
